メインページ
METAR-TAF:

METAR-TAF

空港 :

上海浦東, 中華人民共和国

上海浦東国際空港

緯度: 31-07N, 経度: 121-46E, 海抜: 4m

現時点の気象観測

当レポートは32分前の16:00(UTC)に作成
東/南東の風 4kt
気温 23°C
湿度 94%
気圧 1007 hPa
視程10km以上
高度600ftの千切れ雲あり

METAR: ZSPD 221600Z 11002MPS 9999 BKN006 23/22 Q1007 NOSIG

時間: 00:32 (16:32 UTC)

予報

当レポートは7時間13分前の09:19(UTC)に作成
予報は22日の 12時(UTC)から 23日の 12時(UTC)まで有効
の風 8kt
視程: 3000m
高度500ftの千切れ雲あり
確率 40% :
22日の 17時(UTC)から 22日の 23時(UTC)まで一時的に
視程: 1200m
高度300ftの千切れ雲あり
確率 40% :
23日の 06時(UTC)から 23日の 12時(UTC)まで一時的に
高度500ftの千切れ雲あり
高度3000ftの雲はほとんどない, 積乱雲.
激しい雷雨, 雨

TAF: ZSPD 220919Z 2212/2312 10004MPS 3000 BR BKN005 TX26/2306Z TN20/2221Z PROB40 TEMPO 2217/2223 1200 BR BKN003 PROB40 TEMPO 2306/2312 TSRA BKN005 FEW030CB

4,000以上の空港の気象観測と天気予報(METAR報とTAF報)

利用可能な観測所は地図上に黄色い丸と赤い丸で示す。

丸の上にカーソルを重ねると観測所名を参照できる。

次にクリックすると気象観測と天気予報を参照できる。

マップの切り替え:黒色「×」印の緑ボタンをクリックして拡大、「-」印の緑ボタンをクリックして縮小、緑色の三角印をクリックして隣りの地図に切り替え


METAR-TAF: